FLIGHT INFORMATION
SAS Scandinavian Airlines

SAS1407

At Arrival Gate

ESSA
 EKCH
DATE: 2020-02-20
GATE: 34
GATE DEPARTURE: 14:25
TAKEOFF: 14:42
DATE: 2020-02-20
GATE:  -
LANDING: 15:43
GATE ARRIVAL: 15:54
FLIGHT DATA
Crew: MATS JOHANSSON
Speed: 450 kts Altitude: 36000 ft
Stage Length: 295 nm
Route: 
Block Time: 1.5 Flight Time: 1
Fuel Used: 7235 LB
TRACK DATA
50000 FT1000 KTAltitudeSpeed
AIRCRAFT INFORMATION
Aircraft Type: B738
Registration: LN-RCN
SELCAL:  MSN/LN: 28318 / 529
Operator: SAS SCANDINAVIAN AIRLINES
Flights: 10 Block Time: 16.6 Flight Time: 13.7
Fuel Used: 87540 LB
  • DEPARTURE INFORMATION
    Date: 2020-02-20
    Airport: ESSA
    Gate: 34
    Gate Departure: 14:25
    Takeoff: 14:42
    ARRIVAL INFORMATION
    Date: 2020-02-20
    Airport: EKCH
    Gate:  -
    Landing: 15:43
    Gate Arrival: 15:54
  • FLIGHT DATA
    Crew: MATS JOHANSSON
    Speed: 450 kts Altitude: 36000 ft
    Stage Length: 159 nm
    Route: 
    Block Time: 1.5 Flight Time: 1
    Fuel Used: 7235 LB
  • AIRCRAFT INFORMATION
    Aircraft Type: B738
    Registration: LN-RCN
    SELCAL:  MSN/LN: 28318 / 529
    Operator: SAS Scandinavian Airlines
    Flights: 10 Block Time: 16.6 Flight Time: 13.7
    Fuel Used: 87540 LB

DATALINK LOG | Newest first | Current as of: 2020-08-09 16:37:18
LABEL SEQUENCE CONTENT Dn/Up
QD553015:54 8.5▼ Dn
QC431715:43▼ Dn
2U0627EKCH 201450Z 19019G30KT 4800 -DZRA BR FEW003 OVC005 05/05 Q1008 TEMPO 6000 NSW▲ Up
2S0320EKCH▼ Dn
2U0526EKCH 201450Z 19019G30KT 4800 -DZRA BR FEW003 OVC005 05/05 Q1008 TEMPO 6000 NSW▲ Up
2S0209EKCH▼ Dn
QB434514:42▼ Dn
QA250214:25 15.8▼ Dn
A30228CLEARED TO EKCH VIA DKR5G DKR N872 ERNOV ERNO1C. SQUAWK 7727.▲ Up
B35906ESSA EKCH SAS1407 SAS M ▼ Dn
A30026CLEARED TO EKCH VIA DKR5G DKR N872 ERNOV ERNO1C. SQUAWK 5661.▲ Up
B35738ESSA EKCH SAS1407 SAS M ▼ Dn
A35934CLEARED TO EKCH VIA DKR5G DKR N872 ERNOV ERNO1C. SQUAWK 7454.▲ Up
B35738ESSA EKCH SAS1407 SAS M ▼ Dn
2U3939ESSA 201320Z 21013KT 9999 BKN021 03/M01 Q1008 R01L/09//95 R08/09//95 R01R/09//95 NOSIG▲ Up
2S3723ESSA▼ Dn
Q03838[LINK ACK]▲ Up
Q03602[LINK TEST]▼ Dn


AIRCRAFT HISTORY
FLIGHT DATE FLIGHT NO. ORIGIN DESTINATION ROUTE BLOCK TIME FLIGHT TIME FUEL USED (LB) PILOT
2020-08-07SAS25ESNQ ESNU ESNQ TERPA KETEL ESNU10.86146Mats Johansson
2020-07-30SAS1044ESSA ESNQ ESSA SA551 SA564 SA709 SA710 SA855 LUMAX RESNA OSK RASEN REKMI OSKIR ITVAV VAGAS NQ704 NQ703 RW031.81.49293Mats Johansson
2020-06-27SAS414EKCH ESSA EKCH KEMAX NEXIL ROXEN DEKIK VEPIP BEDOS NEFYN MIKNA PELUP NILUG ESSA1.316605Mats Johansson
2020-02-20SAS1407ESSA EKCH 1.517235Mats Johansson
2020-01-24SAS1045ESNQ ESSA 1.81.47391Mats Johansson
2019-12-07SAS1207ENGM ESNQ 1.71.59123Douglas Morlan
2019-11-14SAS4431ENTC ENGM 2.5212569Kyle Rodgers
2019-11-14SAS4425ENSB ENTC 1.71.49089Kyle Rodgers
2019-11-14SAS4414ENTC ENSB 1.71.59499Kyle Rodgers
2019-11-14SAS4406ENGM ENTC 21.610589Kyle Rodgers